createdAt,value
2023-01-15T00:00:13.340Z,465.63
2023-01-15T00:02:41.990Z,477.42
2023-01-15T00:05:10.263Z,473.08
2023-01-15T00:07:39.549Z,445.45
2023-01-15T00:10:11.682Z,476.80
2023-01-15T00:12:42.229Z,470.77
2023-01-15T00:15:14.498Z,453.42
2023-01-15T00:17:43.921Z,456.45
2023-01-15T00:20:13.028Z,459.88
2023-01-15T00:22:42.619Z,455.67
2023-01-15T00:25:30.893Z,452.83
2023-01-15T00:28:02.015Z,450.25
2023-01-15T00:30:30.133Z,451.58
2023-01-15T00:33:00.683Z,454.65
2023-01-15T00:35:30.006Z,453.00
2023-01-15T00:38:00.254Z,448.05
2023-01-15T00:40:30.996Z,447.73
2023-01-15T00:43:01.627Z,446.40
2023-01-15T00:45:31.014Z,459.77
2023-01-15T00:47:59.112Z,452.35
2023-01-15T00:50:28.116Z,446.48
2023-01-15T00:52:57.458Z,444.98
2023-01-15T00:55:26.150Z,447.83
2023-01-15T00:57:58.061Z,453.23
2023-01-15T01:00:27.407Z,445.00
2023-01-15T01:02:57.844Z,457.75
2023-01-15T01:05:25.975Z,455.33
2023-01-15T01:07:54.321Z,447.17
2023-01-15T01:10:22.497Z,441.63
2023-01-15T01:12:53.499Z,457.95
2023-01-15T01:17:56.294Z,424.55
2023-01-15T01:20:24.502Z,463.10
2023-01-15T01:22:53.807Z,480.50
2023-01-15T01:25:21.978Z,471.27
2023-01-15T01:27:52.644Z,456.45
2023-01-15T01:30:21.936Z,461.52
2023-01-15T01:32:52.541Z,461.10
2023-01-15T01:35:20.966Z,462.90
2023-01-15T01:37:53.054Z,463.02
2023-01-15T01:40:24.177Z,469.55
2023-01-15T01:42:53.463Z,454.20
2023-01-15T01:45:26.864Z,463.95
2023-01-15T01:48:02.674Z,438.95
2023-01-15T01:50:33.009Z,432.38
2023-01-15T01:53:08.491Z,434.75
2023-01-15T01:55:38.715Z,438.05
2023-01-15T01:58:12.994Z,436.67
2023-01-15T02:00:46.094Z,429.60
2023-01-15T02:03:21.317Z,433.88
2023-01-15T02:05:54.921Z,430.83
2023-01-15T02:08:24.227Z,433.00
2023-01-15T02:10:55.888Z,428.15
2023-01-15T02:13:39.878Z,436.60
2023-01-15T02:16:16.630Z,428.73
2023-01-15T02:18:57.764Z,429.83
2023-01-15T02:21:41.021Z,434.77
2023-01-15T02:24:25.839Z,435.35
2023-01-15T02:27:16.065Z,444.48
2023-01-15T02:29:58.988Z,447.15
2023-01-15T02:32:36.121Z,448.98
2023-01-15T02:35:14.025Z,439.30
2023-01-15T02:37:52.130Z,446.88
2023-01-15T02:40:24.702Z,446.02
2023-01-15T02:42:56.506Z,444.07
2023-01-15T02:45:28.228Z,444.30
2023-01-15T02:48:07.557Z,444.33
2023-01-15T02:50:41.733Z,448.38
2023-01-15T02:53:18.407Z,443.55
2023-01-15T02:55:51.653Z,445.40
2023-01-15T02:58:33.441Z,447.05
2023-01-15T03:01:11.159Z,447.67
2023-01-15T03:03:50.932Z,449.33
2023-01-15T03:06:28.608Z,447.77
2023-01-15T03:08:58.812Z,445.42
2023-01-15T03:11:29.275Z,445.83
2023-01-15T03:14:09.608Z,447.40
2023-01-15T03:16:46.561Z,445.65
2023-01-15T03:19:27.904Z,449.85
2023-01-15T03:22:08.143Z,461.85
2023-01-15T03:24:43.313Z,465.50
2023-01-15T03:27:13.648Z,461.35
2023-01-15T03:29:52.672Z,459.52
2023-01-15T03:32:22.070Z,459.85
2023-01-15T03:34:54.789Z,467.83
2023-01-15T03:37:27.357Z,462.13
2023-01-15T03:40:00.801Z,460.70
2023-01-15T03:42:46.613Z,456.52
2023-01-15T03:45:27.046Z,464.08
2023-01-15T03:48:03.871Z,466.77
2023-01-15T03:50:43.773Z,468.67
2023-01-15T03:53:23.074Z,468.80
2023-01-15T03:56:03.113Z,471.65
2023-01-15T03:58:42.854Z,469.92
2023-01-15T04:01:19.783Z,472.45
2023-01-15T04:03:52.247Z,472.33
2023-01-15T04:06:27.367Z,467.13
2023-01-15T04:08:57.558Z,488.40
2023-01-15T04:11:27.981Z,400.50
2023-01-15T04:14:02.450Z,398.90
2023-01-15T04:16:39.245Z,397.45
2023-01-15T04:19:09.129Z,394.33
2023-01-15T04:21:42.294Z,398.10
2023-01-15T04:24:13.172Z,401.90
2023-01-15T04:26:41.212Z,400.10
2023-01-15T04:29:10.520Z,398.15
2023-01-15T04:31:40.116Z,396.73
2023-01-15T04:34:09.480Z,402.77
2023-01-15T04:36:38.976Z,394.85
2023-01-15T04:39:07.487Z,391.50
2023-01-15T04:41:53.119Z,384.17
2023-01-15T04:44:21.140Z,388.58
2023-01-15T04:46:51.740Z,393.25
2023-01-15T04:49:21.224Z,395.58
2023-01-15T04:51:49.304Z,386.48
2023-01-15T04:54:21.529Z,382.63
2023-01-15T04:59:25.566Z,385.48
2023-01-15T05:02:06.271Z,384.38
2023-01-15T05:04:36.642Z,387.23
2023-01-15T05:07:07.009Z,400.20
2023-01-15T05:09:36.600Z,392.15
2023-01-15T05:12:07.005Z,395.13
2023-01-15T05:14:36.298Z,403.08
2023-01-15T05:17:06.852Z,403.90
2023-01-15T05:19:36.105Z,394.77
2023-01-15T05:22:05.345Z,405.40
2023-01-15T05:24:35.818Z,404.92
2023-01-15T05:27:06.174Z,407.60
2023-01-15T05:29:35.455Z,402.08
2023-01-15T05:32:03.765Z,401.23
2023-01-15T05:34:34.412Z,405.35
2023-01-15T05:37:03.729Z,545.78
2023-01-15T05:39:33.007Z,425.58
2023-01-15T05:42:02.168Z,557.28
2023-01-15T05:44:31.435Z,464.38
2023-01-15T05:47:03.208Z,459.35
2023-01-15T05:49:34.073Z,427.85
2023-01-15T05:52:03.684Z,419.75
2023-01-15T05:54:35.059Z,427.25
2023-01-15T05:57:05.074Z,449.73
2023-01-15T05:59:35.977Z,455.10
2023-01-15T06:02:04.311Z,445.48
2023-01-15T06:04:36.422Z,421.02
2023-01-15T06:07:05.277Z,413.88
2023-01-15T06:09:33.329Z,418.05
2023-01-15T06:12:02.572Z,416.67
2023-01-15T06:14:30.647Z,413.55
2023-01-15T06:16:59.923Z,413.70
2023-01-15T06:19:27.984Z,401.83
2023-01-15T06:21:57.337Z,416.02
2023-01-15T06:24:26.700Z,415.88
2023-01-15T06:26:54.774Z,399.55
2023-01-15T06:29:23.218Z,405.13
2023-01-15T06:31:51.330Z,396.77
2023-01-15T06:34:20.737Z,432.75
2023-01-15T06:36:48.869Z,424.70
2023-01-15T06:39:19.481Z,409.38
2023-01-15T06:42:06.519Z,416.75
2023-01-15T06:44:53.453Z,404.35
2023-01-15T06:47:23.233Z,407.38
2023-01-15T06:49:56.203Z,407.05
2023-01-15T06:52:27.627Z,416.73
2023-01-15T06:54:57.445Z,417.75
2023-01-15T06:57:26.668Z,415.60
2023-01-15T06:59:55.112Z,416.55
2023-01-15T07:02:24.405Z,434.42
2023-01-15T07:04:54.862Z,429.40
2023-01-15T07:07:23.611Z,410.08
2023-01-15T07:09:51.859Z,411.63
2023-01-15T07:12:23.299Z,415.08
2023-01-15T07:14:53.293Z,414.58
2023-01-15T07:17:38.527Z,427.87
2023-01-15T07:20:08.765Z,429.10
2023-01-15T07:22:37.996Z,431.70
2023-01-15T07:25:10.851Z,412.40
2023-01-15T07:27:40.167Z,402.98
2023-01-15T07:30:11.349Z,400.33
2023-01-15T07:32:40.676Z,393.50
2023-01-15T07:35:11.345Z,400.48
2023-01-15T07:37:40.601Z,403.35
2023-01-15T07:40:12.174Z,400.25
2023-01-15T07:42:59.079Z,403.25
2023-01-15T07:45:46.682Z,400.88
2023-01-15T07:48:32.502Z,418.05
2023-01-15T07:51:03.420Z,419.52
2023-01-15T07:53:32.629Z,426.33
2023-01-15T07:56:02.069Z,408.88
2023-01-15T07:58:32.615Z,411.10
2023-01-15T08:01:02.050Z,406.90
2023-01-15T08:03:32.013Z,418.65
2023-01-15T08:06:01.393Z,418.30
2023-01-15T08:08:31.044Z,421.92
2023-01-15T08:11:22.275Z,396.10
2023-01-15T08:14:09.788Z,400.40
2023-01-15T08:16:40.313Z,399.15
2023-01-15T08:19:08.364Z,399.58
2023-01-15T08:21:37.658Z,409.15
2023-01-15T08:24:07.586Z,409.58
2023-01-15T08:26:36.884Z,415.77
2023-01-15T08:29:07.518Z,417.98
2023-01-15T08:31:38.158Z,416.85
2023-01-15T08:34:06.243Z,410.02
2023-01-15T08:36:36.070Z,411.83
2023-01-15T08:39:04.722Z,410.08
2023-01-15T08:41:34.415Z,404.42
2023-01-15T08:44:04.626Z,409.50
2023-01-15T08:46:34.133Z,399.90
2023-01-15T08:49:02.508Z,432.98
2023-01-15T08:51:31.809Z,418.45
2023-01-15T08:54:01.118Z,414.52
2023-01-15T08:56:29.232Z,433.30
2023-01-15T08:58:57.328Z,434.33
2023-01-15T09:01:27.865Z,426.63
2023-01-15T09:03:58.152Z,417.58
2023-01-15T09:06:27.690Z,418.45
2023-01-15T09:08:56.917Z,412.58
2023-01-15T09:11:26.558Z,412.17
2023-01-15T09:13:54.661Z,416.58
2023-01-15T09:16:26.636Z,425.88
2023-01-15T09:18:57.268Z,421.42
2023-01-15T09:21:25.777Z,418.95
2023-01-15T09:23:54.251Z,422.25
2023-01-15T09:26:31.380Z,399.50
2023-01-15T09:29:02.299Z,412.55
2023-01-15T09:31:32.275Z,428.90
2023-01-15T09:34:03.049Z,437.55
2023-01-15T09:36:35.298Z,404.85
2023-01-15T09:39:05.289Z,420.63
2023-01-15T09:42:08.106Z,411.33
2023-01-15T09:45:00.121Z,411.25
2023-01-15T09:47:36.842Z,396.35
2023-01-15T09:50:26.951Z,405.60
2023-01-15T09:53:25.194Z,398.10
2023-01-15T09:55:57.008Z,385.17
2023-01-15T09:58:35.270Z,411.60
2023-01-15T10:01:05.384Z,412.08
2023-01-15T10:03:43.091Z,407.40
2023-01-15T10:06:22.025Z,409.17
2023-01-15T10:08:52.361Z,403.70
2023-01-15T10:11:46.593Z,421.75
2023-01-15T10:14:26.443Z,405.15
2023-01-15T10:16:57.340Z,395.20
2023-01-15T10:19:31.913Z,416.35
2023-01-15T10:22:19.119Z,416.42
2023-01-15T10:24:56.797Z,415.00
2023-01-15T10:27:31.278Z,423.20
2023-01-15T10:30:07.463Z,438.52
2023-01-15T10:33:01.646Z,432.08
2023-01-15T10:35:45.987Z,416.17
2023-01-15T10:38:25.955Z,398.25
2023-01-15T10:41:26.486Z,409.80
2023-01-15T10:44:02.636Z,590.30
2023-01-15T10:46:39.460Z,928.45
2023-01-15T10:49:16.492Z,718.22
2023-01-15T10:51:47.560Z,922.25
2023-01-15T10:54:27.601Z,450.35
2023-01-15T10:57:10.975Z,472.52
2023-01-15T10:59:46.291Z,472.75
2023-01-15T11:02:27.275Z,473.25
2023-01-15T11:04:55.906Z,477.88
2023-01-15T11:07:33.501Z,465.08
2023-01-15T11:10:07.753Z,446.17
2023-01-15T11:12:57.141Z,435.35
2023-01-15T11:15:46.306Z,444.45
2023-01-15T11:18:40.827Z,444.73
2023-01-15T11:21:16.209Z,434.23
2023-01-15T11:23:45.383Z,432.08
2023-01-15T11:26:24.874Z,443.52
2023-01-15T11:28:54.695Z,442.30
2023-01-15T11:31:24.321Z,438.10
2023-01-15T11:34:01.182Z,426.63
2023-01-15T11:36:33.709Z,426.90
2023-01-15T11:39:01.937Z,410.58
2023-01-15T11:41:50.709Z,407.00
2023-01-15T11:44:37.975Z,350.55
2023-01-15T11:47:30.256Z,394.00
2023-01-15T11:50:16.257Z,404.40
2023-01-15T11:52:51.046Z,386.23
2023-01-15T11:55:22.262Z,398.48
2023-01-15T11:57:54.429Z,369.33
2023-01-15T12:00:26.897Z,378.50
2023-01-15T12:03:01.380Z,344.38
2023-01-15T12:05:32.753Z,357.75
2023-01-15T12:08:11.801Z,381.17
2023-01-15T12:11:21.316Z,361.55
2023-01-15T12:14:20.054Z,355.50
2023-01-15T12:16:56.882Z,340.85
2023-01-15T12:19:36.819Z,358.85
2023-01-15T12:22:23.803Z,338.73
2023-01-15T12:25:18.422Z,346.70
2023-01-15T12:28:03.306Z,330.60
2023-01-15T12:30:43.143Z,333.13
2023-01-15T12:33:29.610Z,343.95
2023-01-15T12:36:04.463Z,339.83
2023-01-15T12:38:52.048Z,335.33
2023-01-15T12:41:50.035Z,345.45
2023-01-15T12:44:47.046Z,341.30
2023-01-15T12:47:23.617Z,343.80
2023-01-15T12:49:58.725Z,366.75
2023-01-15T12:52:35.246Z,375.30
2023-01-15T12:55:15.486Z,369.33
2023-01-15T12:57:48.032Z,367.38
2023-01-15T13:00:22.543Z,359.20
2023-01-15T13:03:10.427Z,360.25
2023-01-15T13:05:47.596Z,343.08
2023-01-15T13:08:27.147Z,345.98
2023-01-15T13:10:55.639Z,338.65
2023-01-15T13:13:29.970Z,342.40
2023-01-15T13:16:15.415Z,336.20
2023-01-15T13:19:00.427Z,328.02
2023-01-15T13:21:35.519Z,322.13
2023-01-15T13:24:24.295Z,311.15
2023-01-15T13:27:17.641Z,304.67
2023-01-15T13:30:05.925Z,295.55
2023-01-15T13:32:37.225Z,323.45
2023-01-15T13:35:15.495Z,319.35
2023-01-15T13:37:49.399Z,334.65
2023-01-15T13:40:26.489Z,320.15
2023-01-15T13:42:58.257Z,319.17
2023-01-15T13:45:37.804Z,327.75
2023-01-15T13:48:13.166Z,314.02
2023-01-15T13:50:52.250Z,337.48
2023-01-15T13:53:30.436Z,335.15
2023-01-15T13:56:05.366Z,349.98
2023-01-15T13:58:40.239Z,333.63
2023-01-15T14:01:27.410Z,349.52
2023-01-15T14:04:09.160Z,356.33
2023-01-15T14:06:46.125Z,365.77
2023-01-15T14:09:29.484Z,354.65
2023-01-15T14:12:14.497Z,351.33
2023-01-15T14:15:02.650Z,379.75
2023-01-15T14:18:05.611Z,387.42
2023-01-15T14:20:55.986Z,385.23
2023-01-15T14:23:46.019Z,375.40
2023-01-15T14:26:25.521Z,400.23
2023-01-15T14:29:26.066Z,423.85
2023-01-15T14:32:10.592Z,402.63
2023-01-15T14:34:39.392Z,406.55
2023-01-15T14:37:25.448Z,399.15
2023-01-15T14:39:59.915Z,399.35
2023-01-15T14:42:49.878Z,394.88
2023-01-15T14:45:26.944Z,401.38
2023-01-15T14:47:56.675Z,390.45
2023-01-15T14:50:42.025Z,372.27
2023-01-15T14:53:32.059Z,350.33
2023-01-15T14:56:12.892Z,340.40
2023-01-15T14:58:59.665Z,367.27
2023-01-15T15:01:37.098Z,313.60
2023-01-15T15:04:23.447Z,347.50
2023-01-15T15:06:57.287Z,328.77
2023-01-15T15:09:37.376Z,331.58
2023-01-15T15:12:24.849Z,341.65
2023-01-15T15:15:02.864Z,367.30
2023-01-15T15:17:45.513Z,396.90
2023-01-15T15:20:32.409Z,381.48
2023-01-15T15:23:13.009Z,365.02
2023-01-15T15:25:43.990Z,370.73
2023-01-15T15:28:15.796Z,331.17
2023-01-15T15:30:47.141Z,332.08
2023-01-15T15:33:22.277Z,330.25
2023-01-15T15:35:55.983Z,326.23
2023-01-15T15:38:27.626Z,333.42
2023-01-15T15:40:59.317Z,342.58
2023-01-15T15:43:57.268Z,341.63
2023-01-15T15:46:45.978Z,363.25
2023-01-15T15:49:17.359Z,359.73
2023-01-15T15:51:49.583Z,372.25
2023-01-15T15:54:21.892Z,320.83
2023-01-15T15:56:57.659Z,317.42
2023-01-15T15:59:36.679Z,356.17
2023-01-15T16:02:20.535Z,357.60
2023-01-15T16:04:51.920Z,323.58
2023-01-15T16:07:27.708Z,308.02
2023-01-15T16:10:01.468Z,347.90
2023-01-15T16:12:36.103Z,370.98
2023-01-15T16:15:08.569Z,418.38
2023-01-15T16:17:41.445Z,377.95
2023-01-15T16:20:16.395Z,345.45
2023-01-15T16:22:47.272Z,361.25
2023-01-15T16:25:25.999Z,324.73
2023-01-15T16:27:55.406Z,337.48
2023-01-15T16:30:25.462Z,341.83
2023-01-15T16:32:57.757Z,371.15
2023-01-15T16:35:27.134Z,344.00
2023-01-15T16:37:58.641Z,319.73
2023-01-15T16:40:31.636Z,298.60
2023-01-15T16:43:10.041Z,290.10
2023-01-15T16:45:58.534Z,321.00
2023-01-15T16:48:29.964Z,321.70
2023-01-15T16:50:58.967Z,297.42
2023-01-15T16:53:37.924Z,293.85
2023-01-15T16:56:07.926Z,321.50
2023-01-15T16:58:39.816Z,359.03
2023-01-15T17:01:35.811Z,382.95
2023-01-15T17:04:16.187Z,373.27
2023-01-15T17:06:45.501Z,368.70
2023-01-15T17:09:16.036Z,351.60
2023-01-15T17:11:51.699Z,314.23
2023-01-15T17:14:24.181Z,328.65
2023-01-15T17:17:18.531Z,320.80
2023-01-15T17:19:49.408Z,363.58
2023-01-15T17:22:27.506Z,319.02
2023-01-15T17:24:58.937Z,339.58
2023-01-15T17:27:30.328Z,307.30
2023-01-15T17:29:59.537Z,290.55
2023-01-15T17:32:37.260Z,294.05
2023-01-15T17:35:08.902Z,304.30
2023-01-15T17:37:38.131Z,294.48
2023-01-15T17:40:07.937Z,331.50
2023-01-15T17:42:37.235Z,336.73
2023-01-15T17:45:05.989Z,370.23
2023-01-15T17:47:36.677Z,381.02
2023-01-15T17:50:08.091Z,355.15
2023-01-15T17:52:37.333Z,372.27
2023-01-15T17:55:26.907Z,400.33
2023-01-15T17:58:14.078Z,405.38
2023-01-15T18:01:01.423Z,435.02
2023-01-15T18:03:49.569Z,446.42
2023-01-15T18:06:20.960Z,440.90
2023-01-15T18:08:58.092Z,388.52
2023-01-15T18:11:27.596Z,344.48
2023-01-15T18:13:57.197Z,306.65
2023-01-15T18:16:27.171Z,331.90
2023-01-15T18:18:57.972Z,332.63
2023-01-15T18:21:27.574Z,442.02
2023-01-15T18:24:00.269Z,440.88
2023-01-15T18:26:28.328Z,462.70
2023-01-15T18:28:58.783Z,469.10
2023-01-15T18:31:28.429Z,455.30
2023-01-15T18:33:59.150Z,430.77
2023-01-15T18:36:27.278Z,447.80
2023-01-15T18:39:03.441Z,429.20
2023-01-15T18:41:51.292Z,446.80
2023-01-15T18:44:40.856Z,439.90
2023-01-15T18:47:13.260Z,413.67
2023-01-15T18:49:45.944Z,401.52
2023-01-15T18:52:34.917Z,414.33
2023-01-15T18:55:04.945Z,401.27
2023-01-15T18:57:34.835Z,374.08
2023-01-15T19:00:04.458Z,396.23
2023-01-15T19:02:32.979Z,334.23
2023-01-15T19:05:02.408Z,331.85
2023-01-15T19:07:33.235Z,332.30
2023-01-15T19:10:02.519Z,376.00
2023-01-15T19:12:31.791Z,357.30
2023-01-15T19:15:19.755Z,366.48
2023-01-15T19:18:05.339Z,382.52
2023-01-15T19:20:36.024Z,410.85
2023-01-15T19:23:06.794Z,372.13
2023-01-15T19:25:42.658Z,353.35
2023-01-15T19:28:16.976Z,385.45
2023-01-15T19:31:07.470Z,368.00
2023-01-15T19:33:36.286Z,357.15
2023-01-15T19:36:07.251Z,324.58
2023-01-15T19:41:25.680Z,332.80
2023-01-15T19:44:12.867Z,339.95
2023-01-15T19:46:58.679Z,421.23
2023-01-15T19:49:45.014Z,396.35
2023-01-15T19:52:32.798Z,415.05
2023-01-15T19:55:03.409Z,392.70
2023-01-15T19:57:31.583Z,383.60
2023-01-15T20:00:00.908Z,399.38
2023-01-15T20:02:29.131Z,332.85
2023-01-15T20:04:58.651Z,342.98
2023-01-15T20:07:29.568Z,360.27
2023-01-15T20:09:58.891Z,352.55
2023-01-15T20:12:51.404Z,385.63
2023-01-15T20:17:50.323Z,384.30
2023-01-15T20:20:20.059Z,384.80
2023-01-15T20:22:49.964Z,350.38
2023-01-15T20:25:19.884Z,367.90
2023-01-15T20:27:49.232Z,406.63
2023-01-15T20:30:21.521Z,377.40
2023-01-15T20:32:49.683Z,368.75
2023-01-15T20:35:20.946Z,441.52
2023-01-15T20:37:52.427Z,444.83
2023-01-15T20:40:24.914Z,450.48
2023-01-15T20:43:12.979Z,447.20
2023-01-15T20:45:42.533Z,413.70
2023-01-15T20:48:29.431Z,424.73
2023-01-15T20:51:04.724Z,427.85
2023-01-15T20:53:35.782Z,425.35
2023-01-15T20:56:13.503Z,408.63
2023-01-15T20:58:44.783Z,448.50
2023-01-15T21:01:13.201Z,446.27
2023-01-15T21:03:44.132Z,421.65
2023-01-15T21:06:12.686Z,434.38
2023-01-15T21:08:47.209Z,407.98
2023-01-15T21:11:17.284Z,403.98
2023-01-15T21:13:47.000Z,418.80
2023-01-15T21:16:16.498Z,411.33
2023-01-15T21:18:47.569Z,396.55
2023-01-15T21:21:20.881Z,403.63
2023-01-15T21:23:51.566Z,424.65
2023-01-15T21:26:21.027Z,423.33
2023-01-15T21:28:54.637Z,398.35
2023-01-15T21:31:24.352Z,422.70
2023-01-15T21:33:55.693Z,411.83
2023-01-15T21:36:24.795Z,404.58
2023-01-15T21:38:58.039Z,411.98
2023-01-15T21:41:42.247Z,406.48
2023-01-15T21:44:34.098Z,400.45
2023-01-15T21:47:04.349Z,400.63
2023-01-15T21:49:34.982Z,404.90
2023-01-15T21:52:08.447Z,428.60
2023-01-15T21:54:41.653Z,463.15
2023-01-15T21:57:10.183Z,460.70
2023-01-15T21:59:39.963Z,430.17
2023-01-15T22:02:15.312Z,437.65
2023-01-15T22:04:45.762Z,457.48
2023-01-15T22:07:16.730Z,459.88
2023-01-15T22:09:46.259Z,459.38
2023-01-15T22:12:15.600Z,433.02
2023-01-15T22:14:46.332Z,430.88
2023-01-15T22:17:14.412Z,473.05
2023-01-15T22:19:43.717Z,476.58
2023-01-15T22:22:13.005Z,484.38
2023-01-15T22:24:43.560Z,491.60
2023-01-15T22:27:16.989Z,482.35
2023-01-15T22:29:47.446Z,475.33
2023-01-15T22:32:16.232Z,482.25
2023-01-15T22:34:45.816Z,440.38
2023-01-15T22:37:15.845Z,457.85
2023-01-15T22:39:46.689Z,392.85
2023-01-15T22:42:27.259Z,459.23
2023-01-15T22:44:59.156Z,471.55
2023-01-15T22:47:28.660Z,471.40
2023-01-15T22:49:58.453Z,374.48
2023-01-15T22:52:27.325Z,395.52
2023-01-15T22:54:56.975Z,455.98
2023-01-15T22:57:26.690Z,441.60
2023-01-15T22:59:56.435Z,450.50
2023-01-15T23:02:40.395Z,473.55
2023-01-15T23:05:10.777Z,476.02
2023-01-15T23:07:41.575Z,466.05
2023-01-15T23:10:13.619Z,465.38
2023-01-15T23:12:44.361Z,473.98
2023-01-15T23:15:17.120Z,399.75
2023-01-15T23:17:46.804Z,400.75
2023-01-15T23:20:17.327Z,410.45
2023-01-15T23:22:45.748Z,364.70
2023-01-15T23:25:16.266Z,336.63
2023-01-15T23:27:45.649Z,346.27
2023-01-15T23:30:16.989Z,423.65
2023-01-15T23:32:46.610Z,421.90
2023-01-15T23:35:14.695Z,395.13
2023-01-15T23:37:42.776Z,372.55
2023-01-15T23:40:14.860Z,429.13
2023-01-15T23:43:03.255Z,427.17
2023-01-15T23:45:51.894Z,368.00
2023-01-15T23:48:21.203Z,337.95
2023-01-15T23:50:50.526Z,357.98
2023-01-15T23:53:18.952Z,374.85
2023-01-15T23:55:49.425Z,376.95
2023-01-15T23:58:20.033Z,391.67
